Terminal Aerodrome Forecast
Issued by NWS Pittsburgh, PA

Current Version | Previous Version | Graphics & Text | Print | Product List | Glossary On
Versions: 1 2 3 4 5 6 7 8 9 10 11 12 13 14 15 16 17 18 19 20 21 22 23 24 25 26 27 28 29 30 31 32 33
000
FTUS41 KPBZ 280300 AAB
TAFPIT
TAF AMD
KPIT 280312Z 2803/2906 23007KT 6SM BR SCT030 OVC080
      TEMPO 2803/2804 2SM SHRA BR BKN030 OVC060
     FM280430 28010KT 5SM BR SCT050
     FM280600 29005KT 5SM BR BKN015
     FM280900 30009KT 4SM BR OVC007
     FM281500 31013KT P6SM VCSH BKN025=

USA.gov is the U.S. government's official web portal to all federal, state and local government web resources and services.